Time;durP1;ratioP1;P1;durP2;ratioP2;P2;SDS_P1;SDS_P2;PMS_P1;PMS_P2;Temp;Humidity;BMP_temperature;BMP_pressure;BME280_temperature;BME280_humidity;BME280_pressure;Samples;Min_cycle;Max_cycle;Signal;HPM_P1;HPM_P2
2022/02/25 04:30:34;;;;;;;8.73;2.15;;;;;;;2.49;71.27;100520.25;1083289;46;20027;-80
2022/02/25 04:31:37;;;;;;;5.63;1.35;;;;;;;2.46;71.59;100525.69;1088524;54;20059;-78
2022/02/25 04:32:42;;;;;;;4.53;1.33;;;;;;;2.52;71.44;100530.66;1088634;54;20030;-80
2022/02/25 04:33:44;;;;;;;9.13;1.88;;;;;;;2.61;71.38;100524.88;1088664;54;20050;-79
2022/02/25 04:34:50;;;;;;;6.07;1.33;;;;;;;2.73;70.89;100518.09;1088583;54;20037;-79
2022/02/25 04:36:55;;;;;;;5.82;1.50;;;;;;;2.65;71.28;100531.69;1090345;39;20776;-79
2022/02/25 04:37:59;;;;;;;5.10;1.00;;;;;;;2.65;71.44;100520.28;1088686;54;20030;-83
2022/02/25 04:49:41;;;;;;;8.35;1.70;;;;;;;2.63;71.89;100541.50;1088063;54;20041;-76
2022/02/25 04:50:43;;;;;;;8.80;1.50;;;;;;;2.70;71.81;100536.72;1088178;54;20019;-77
2022/02/25 04:51:47;;;;;;;6.07;1.58;;;;;;;2.74;71.61;100529.53;1090470;46;20046;-76
2022/02/25 04:52:50;;;;;;;6.80;1.42;;;;;;;2.76;71.42;100533.78;1088035;54;20053;-78
2022/02/25 04:53:55;;;;;;;6.95;1.38;;;;;;;2.75;71.42;100539.13;1088090;54;20034;-76
2022/02/25 04:54:57;;;;;;;7.95;1.70;;;;;;;2.80;71.46;100532.66;1087932;54;20041;-78
2022/02/25 04:56:05;;;;;;;5.57;1.30;;;;;;;2.82;71.38;100527.31;1087992;54;20034;-77
2022/02/25 04:57:09;;;;;;;5.13;1.45;;;;;;;2.83;71.51;100534.31;1087826;54;20023;-78
2022/02/25 04:58:11;;;;;;;15.52;2.58;;;;;;;2.68;71.72;100535.13;1088595;39;20674;-79
2022/02/25 04:59:16;;;;;;;9.85;1.58;;;;;;;2.70;71.55;100534.09;1088151;54;20041;-77
2022/02/25 05:00:17;;;;;;;7.80;2.53;;;;;;;2.67;71.79;100536.91;1088385;54;20027;-78
2022/02/25 05:01:22;;;;;;;6.70;1.67;;;;;;;2.64;71.75;100530.03;1088468;54;20030;-79
2022/02/25 05:02:23;;;;;;;10.60;2.00;;;;;;;2.65;71.79;100531.69;1097447;39;20559;-78
2022/02/25 05:03:27;;;;;;;8.95;1.65;;;;;;;2.66;71.70;100537.84;1088344;54;20030;-78
2022/02/25 05:04:29;;;;;;;6.72;1.30;;;;;;;2.69;71.59;100536.81;1088493;54;20015;-78
2022/02/25 05:05:36;;;;;;;9.05;1.58;;;;;;;2.71;71.55;100538.44;1092537;39;20600;-78
2022/02/25 05:06:40;;;;;;;8.70;1.67;;;;;;;2.67;71.54;100536.91;1088540;54;20017;-77
2022/02/25 05:08:02;;;;;;;6.35;1.38;;;;;;;2.58;72.38;100546.16;1088533;54;20018;-80
2022/02/25 05:09:04;;;;;;;6.00;1.33;;;;;;;2.55;72.25;100545.47;1088490;54;20018;-80
2022/02/25 05:10:30;;;;;;;4.40;1.27;;;;;;;2.52;72.50;100551.78;1088611;54;20026;-78
2022/02/25 05:11:31;;;;;;;8.38;1.77;;;;;;;2.55;72.12;100556.03;1090557;46;20014;-79
2022/02/25 05:12:53;;;;;;;7.78;1.60;;;;;;;2.55;72.25;100558.69;1088484;54;20035;-78
2022/02/25 05:21:21;;;;;;;10.85;3.17;;;;;;;2.47;72.36;100564.34;1088559;54;20021;-79
2022/02/25 05:22:23;;;;;;;9.00;2.05;;;;;;;2.56;72.34;100553.31;1088477;54;20047;-79
2022/02/25 05:23:28;;;;;;;10.35;1.95;;;;;;;2.56;72.25;100553.31;1088464;54;20022;-79
2022/02/25 05:24:29;;;;;;;8.00;1.60;;;;;;;2.50;72.55;100553.63;1088520;54;20019;-78
2022/02/25 05:25:35;;;;;;;8.10;2.13;;;;;;;2.48;72.35;100553.72;1088533;54;20047;-78
2022/02/25 05:26:40;;;;;;;7.35;1.65;;;;;;;2.53;72.39;100553.47;1088535;54;20588;-79
2022/02/25 05:27:42;;;;;;;8.05;2.08;;;;;;;2.50;72.53;100553.63;1088515;54;20042;-79
2022/02/25 05:28:46;;;;;;;8.38;1.70;;;;;;;2.48;72.45;100555.50;1088451;54;20011;-80
2022/02/25 05:29:48;;;;;;;14.00;2.58;;;;;;;2.51;72.50;100555.34;1089920;46;20026;-81
2022/02/25 05:30:52;;;;;;;10.75;2.00;;;;;;;2.47;72.33;100553.78;1088472;54;20019;-79
2022/02/25 05:31:54;;;;;;;9.20;1.60;;;;;;;2.48;72.45;100552.84;1088534;54;20018;-80
2022/02/25 05:32:58;;;;;;;5.80;1.35;;;;;;;2.39;72.74;100559.50;1088460;54;20046;-78
2022/02/25 05:34:00;;;;;;;5.18;1.50;;;;;;;2.57;72.43;100552.38;1088275;54;20038;-77
2022/02/25 05:35:06;;;;;;;6.40;1.75;;;;;;;2.48;72.57;100564.28;1088166;54;20041;-78
2022/02/25 05:36:10;;;;;;;8.75;1.50;;;;;;;2.48;72.38;100563.41;1088265;54;20666;-78
2022/02/25 05:37:14;;;;;;;7.18;1.65;;;;;;;2.45;72.43;100560.97;1088208;54;20034;-78
2022/02/25 05:38:18;;;;;;;8.00;1.90;;;;;;;2.40;72.58;100568.25;1088292;54;20067;-78
2022/02/25 05:39:19;;;;;;;9.85;1.95;;;;;;;2.45;72.45;100569.72;1088248;54;20034;-79
2022/02/25 05:40:25;;;;;;;8.82;1.65;;;;;;;2.49;72.57;100578.31;1088181;54;20815;-79
2022/02/25 05:41:29;;;;;;;7.72;2.25;;;;;;;2.39;72.73;100580.59;1089467;46;20041;-78
2022/02/25 05:42:30;;;;;;;9.00;1.75;;;;;;;2.46;72.70;100573.19;1088230;54;20023;-77
2022/02/25 05:43:34;;;;;;;8.63;1.70;;;;;;;2.42;72.68;100579.59;1088181;54;20027;-78
2022/02/25 05:44:36;;;;;;;7.28;1.85;;;;;;;2.42;72.53;100574.31;1088211;54;20027;-78
2022/02/25 05:45:40;;;;;;;10.32;2.05;;;;;;;2.37;72.68;100577.19;1087979;54;20054;-79
2022/02/25 05:46:42;;;;;;;8.02;1.75;;;;;;;2.37;72.93;100581.59;1087713;54;20034;-78
2022/02/25 05:47:47;;;;;;;9.05;2.60;;;;;;;2.42;72.67;100579.59;1088200;54;20030;-78
2022/02/25 05:48:48;;;;;;;7.50;2.13;;;;;;;2.32;73.00;100579.19;1088172;54;20049;-77
2022/02/25 05:49:52;;;;;;;5.20;1.33;;;;;;;2.41;72.73;100585.78;1088216;54;20031;-78
2022/02/25 05:50:54;;;;;;;7.72;2.03;;;;;;;2.35;72.82;100581.69;1088184;54;20773;-78
2022/02/25 05:51:58;;;;;;;8.40;1.60;;;;;;;2.39;72.80;100579.72;1088630;39;20576;-77
2022/02/25 05:53:02;;;;;;;7.47;2.50;;;;;;;2.36;72.66;100580.75;1088211;54;20042;-78
2022/02/25 05:54:07;;;;;;;9.63;2.05;;;;;;;2.26;72.96;100588.28;1088191;54;20034;-75
2022/02/25 05:55:09;;;;;;;8.23;1.80;;;;;;;2.47;72.50;100588.09;1088053;54;20035;-75
2022/02/25 05:56:13;;;;;;;7.85;1.90;;;;;;;2.46;72.62;100583.75;1088216;54;20049;-75
2022/02/25 05:57:15;;;;;;;8.25;2.05;;;;;;;2.45;72.72;100584.72;1088059;54;20030;-76
2022/02/25 05:58:20;;;;;;;8.18;1.73;;;;;;;2.49;72.65;100584.47;1088193;54;20049;-75
2022/02/25 05:59:21;;;;;;;8.98;1.90;;;;;;;2.59;72.20;100590.09;1088181;54;20026;-76
2022/02/25 06:00:25;;;;;;;6.05;1.60;;;;;;;2.58;72.34;100577.00;1088174;54;20029;-76
2022/02/25 06:01:27;;;;;;;8.70;1.70;;;;;;;2.38;72.77;100588.56;1088185;54;20018;-76
2022/02/25 06:02:31;;;;;;;7.78;2.00;;;;;;;2.40;72.77;100589.34;1091384;39;20615;-77
2022/02/25 06:03:33;;;;;;;10.32;2.15;;;;;;;2.45;72.54;100595.28;1087759;54;20054;-76
2022/02/25 06:04:37;;;;;;;9.15;1.80;;;;;;;2.40;72.70;100595.50;1088209;54;20034;-76
2022/02/25 06:05:42;;;;;;;9.25;1.67;;;;;;;2.36;72.66;100593.09;1087969;54;20031;-76
2022/02/25 06:06:43;;;;;;;8.88;1.98;;;;;;;2.34;73.08;100598.44;1091187;39;20713;-76
2022/02/25 06:07:48;;;;;;;9.40;2.08;;;;;;;2.37;72.88;100600.06;1092416;31;20727;-76
2022/02/25 06:08:52;;;;;;;6.95;1.95;;;;;;;2.40;72.83;100605.19;1088138;54;20022;-76
2022/02/25 06:09:56;;;;;;;7.57;2.33;;;;;;;2.50;72.56;100601.97;1088108;54;20022;-76
2022/02/25 06:11:00;;;;;;;11.38;3.25;;;;;;;2.37;72.91;100607.97;1088198;54;20018;-76
2022/02/25 06:12:02;;;;;;;7.68;2.78;;;;;;;2.43;72.59;100612.97;1088104;54;20042;-76
2022/02/25 06:13:07;;;;;;;9.30;2.45;;;;;;;2.49;72.58;100618.78;1088074;54;20086;-75
2022/02/25 06:14:08;;;;;;;7.97;2.47;;;;;;;2.35;72.90;100613.34;1088102;54;20038;-76
2022/02/25 06:15:13;;;;;;;13.23;3.22;;;;;;;2.34;72.98;100617.78;1088168;54;20105;-78
2022/02/25 06:16:15;;;;;;;11.00;2.20;;;;;;;2.33;72.99;100621.34;1088395;54;20042;-79
2022/02/25 06:17:20;;;;;;;7.05;2.42;;;;;;;2.31;73.05;100625.00;1088475;54;20017;-79
2022/02/25 06:18:22;;;;;;;7.15;2.00;;;;;;;2.39;72.95;100614.03;1088441;54;20018;-79
2022/02/25 06:19:27;;;;;;;5.97;1.88;;;;;;;2.42;72.79;100613.88;1088408;54;20045;-79
2022/02/25 06:20:32;;;;;;;8.23;2.28;;;;;;;2.36;73.27;100615.06;1088443;54;20038;-80
2022/02/25 06:21:34;;;;;;;9.80;2.17;;;;;;;2.36;73.06;100620.31;1088559;47;20094;-79
2022/02/25 06:22:38;;;;;;;8.55;2.00;;;;;;;2.41;73.09;100617.47;1088516;54;20024;-78
2022/02/25 06:23:43;;;;;;;4.72;1.42;;;;;;;2.46;72.85;100626.84;1088464;54;20035;-82
2022/02/25 06:24:48;;;;;;;7.05;1.80;;;;;;;2.46;72.76;100625.97;1088369;54;20098;-79
2022/02/25 06:25:54;;;;;;;10.55;2.13;;;;;;;2.43;72.99;100621.72;1088296;54;20019;-78
2022/02/25 06:26:59;;;;;;;8.25;2.05;;;;;;;2.49;72.78;100625.84;1088414;54;20091;-78
2022/02/25 06:28:04;;;;;;;7.72;2.00;;;;;;;2.49;72.67;100629.34;1088410;54;20034;-78
2022/02/25 06:29:26;;;;;;;13.70;2.53;;;;;;;2.40;72.85;100623.66;1088303;54;20014;-80
2022/02/25 06:30:53;;;;;;;9.55;2.42;;;;;;;2.37;72.99;100631.72;1088225;54;20063;-78
2022/02/25 06:32:10;;;;;;;9.77;2.05;;;;;;;2.44;72.80;100625.22;1088195;54;20010;-78
2022/02/25 06:33:31;;;;;;;9.65;2.33;;;;;;;2.49;72.67;100626.69;1091200;46;20034;-78
2022/02/25 06:34:36;;;;;;;8.68;2.38;;;;;;;2.44;72.47;100633.16;1088147;54;20010;-79
2022/02/25 06:35:40;;;;;;;8.82;2.65;;;;;;;2.41;72.73;100641.22;1089174;39;20646;-77
2022/02/25 06:36:42;;;;;;;8.70;2.22;;;;;;;2.42;72.64;100637.63;1087564;54;20047;-75
2022/02/25 06:37:47;;;;;;;11.02;2.65;;;;;;;2.41;72.75;100636.78;1088055;54;20053;-75
2022/02/25 06:38:48;;;;;;;8.82;1.90;;;;;;;2.41;72.83;100634.13;1088023;54;20034;-76
2022/02/25 06:39:55;;;;;;;13.35;3.55;;;;;;;2.41;72.61;100641.22;1087944;54;20034;-74
2022/02/25 06:40:57;;;;;;;7.75;2.55;;;;;;;2.40;72.59;100636.84;1089060;39;20610;-75
2022/02/25 06:42:01;;;;;;;11.40;2.72;;;;;;;2.34;73.13;100643.28;1088116;54;20031;-75
2022/02/25 06:43:05;;;;;;;12.23;2.70;;;;;;;2.41;72.79;100646.47;1088120;54;20034;-77
2022/02/25 06:44:07;;;;;;;12.20;2.88;;;;;;;2.30;72.90;100637.31;1088048;54;20725;-75
2022/02/25 06:45:11;;;;;;;10.00;2.45;;;;;;;2.34;73.25;100644.16;1088016;54;20023;-75
2022/02/25 06:46:13;;;;;;;8.20;2.28;;;;;;;2.36;73.07;100637.97;1088040;54;20065;-76
2022/02/25 06:47:17;;;;;;;8.18;2.75;;;;;;;2.34;73.03;100638.88;1087997;54;20687;-76
2022/02/25 06:48:21;;;;;;;9.80;2.20;;;;;;;2.53;72.62;100643.22;1088112;54;20034;-76
2022/02/25 06:49:41;;;;;;;11.48;2.58;;;;;;;2.59;72.42;100637.63;1088069;54;20061;-76
2022/02/25 06:50:54;;;;;;;7.85;2.13;;;;;;;2.59;72.37;100645.53;1088305;54;20568;-80
2022/02/25 06:52:50;;;;;;;10.75;2.80;;;;;;;2.56;72.44;100650.97;1095854;39;20590;-80
2022/02/25 06:53:57;;;;;;;8.48;2.33;;;;;;;2.43;72.65;100653.38;1088171;54;20046;-78
2022/02/25 06:55:09;;;;;;;13.50;2.60;;;;;;;2.46;72.33;100658.53;1088378;54;20078;-81
2022/02/25 06:56:26;;;;;;;;;;;;;;;;;;;;;
2022/02/25 06:59:16;;;;;;;8.50;2.30;;;;;;;2.57;71.99;100652.69;1088367;54;20042;-78
2022/02/25 07:00:23;;;;;;;9.10;2.30;;;;;;;2.74;71.65;100656.25;1088418;54;20026;-79
2022/02/25 07:01:48;;;;;;;7.72;2.97;;;;;;;2.76;71.41;100662.28;1088393;54;20018;-77
2022/02/25 07:04:52;;;;;;;11.20;2.70;;;;;;;2.71;71.43;100659.06;1088368;54;20780;-78
2022/02/25 07:05:57;;;;;;;11.10;2.40;;;;;;;2.75;71.34;100660.59;1088368;54;20042;-78
2022/02/25 07:07:03;;;;;;;9.93;2.17;;;;;;;2.90;71.03;100659.81;1088352;54;20019;-78
2022/02/25 07:08:06;;;;;;;10.57;2.78;;;;;;;2.76;71.17;100664.94;1088342;54;20614;-78
2022/02/25 07:09:21;;;;;;;10.82;2.58;;;;;;;2.71;70.99;100661.69;1088278;54;20031;-79
2022/02/25 07:11:06;;;;;;;8.68;2.17;;;;;;;2.77;71.21;100664.00;1088050;54;20034;-79
2022/02/25 07:12:19;;;;;;;10.20;1.92;;;;;;;2.84;71.00;100667.19;1091171;47;20041;-80
2022/02/25 07:14:44;;;;;;;9.47;2.23;;;;;;;2.79;71.10;100672.72;1088168;54;20010;-79
2022/02/25 07:16:04;;;;;;;9.85;2.85;;;;;;;2.90;70.89;100678.28;1088152;54;20267;-78
2022/02/25 07:17:19;;;;;;;7.22;2.15;;;;;;;3.04;70.51;100668.78;1088097;54;20069;-78
2022/02/25 07:20:16;;;;;;;10.30;2.20;;;;;;;3.00;70.23;100672.53;1088593;54;20046;-78
2022/02/25 07:21:24;;;;;;;10.77;2.55;;;;;;;3.11;70.24;100664.91;1088632;54;20122;-79
2022/02/25 07:22:28;;;;;;;10.02;1.98;;;;;;;3.15;70.28;100668.22;1088696;54;20030;-80
2022/02/25 07:23:33;;;;;;;12.60;2.35;;;;;;;3.11;70.28;100676.31;1088701;54;20043;-80
2022/02/25 07:24:56;;;;;;;9.48;2.70;;;;;;;3.24;69.38;100673.03;1088620;54;20841;-79
2022/02/25 07:26:07;;;;;;;8.93;2.05;;;;;;;3.12;69.56;100672.72;1088479;54;20011;-79
2022/02/25 07:27:15;;;;;;;10.32;2.28;;;;;;;3.04;69.79;100687.28;1088405;54;20018;-78
2022/02/25 07:28:45;;;;;;;12.07;2.85;;;;;;;3.09;69.95;100682.63;1088455;54;20065;-81
2022/02/25 07:30:11;;;;;;;13.52;4.10;;;;;;;3.08;70.14;100686.19;1088599;54;20030;-79
2022/02/25 07:31:23;;;;;;;10.52;2.80;;;;;;;3.08;70.05;100687.03;1088474;54;20144;-79
2022/02/25 07:32:38;;;;;;;9.73;2.65;;;;;;;3.05;69.83;100686.34;1088635;54;20034;-80
2022/02/25 07:33:43;;;;;;;10.25;2.38;;;;;;;3.12;70.06;100687.72;1088596;54;20023;-81
2022/02/25 07:34:45;;;;;;;9.65;2.28;;;;;;;3.16;69.72;100701.66;1088752;54;20026;-77
2022/02/25 07:35:53;;;;;;;13.48;2.42;;;;;;;3.25;69.65;100694.06;1088500;54;20053;-78
2022/02/25 07:36:57;;;;;;;11.95;2.20;;;;;;;3.30;69.32;100700.91;1088541;54;20027;-79
2022/02/25 07:38:01;;;;;;;10.48;2.63;;;;;;;3.30;69.27;100695.63;1088584;54;20082;-80
2022/02/25 07:39:18;;;;;;;10.30;2.20;;;;;;;3.32;69.42;100693.72;1088577;54;20023;-80
2022/02/25 07:40:25;;;;;;;12.05;2.63;;;;;;;3.42;69.30;100693.16;1088468;54;20043;-79
2022/02/25 07:41:34;;;;;;;9.68;2.17;;;;;;;3.54;68.80;100694.28;1088699;54;20018;-80
2022/02/25 07:44:01;;;;;;;11.57;2.63;;;;;;;3.49;68.88;100699.00;1088575;54;20011;-81
2022/02/25 07:45:08;;;;;;;10.35;2.28;;;;;;;3.48;68.79;100699.03;1088547;54;20765;-79
2022/02/25 07:46:13;;;;;;;9.00;2.40;;;;;;;3.50;68.98;100698.03;1088540;54;20042;-78
2022/02/25 07:47:19;;;;;;;8.85;2.10;;;;;;;3.55;68.54;100703.06;1088613;54;20749;-79
2022/02/25 07:48:27;;;;;;;9.13;2.40;;;;;;;3.65;68.33;100698.13;1088472;54;20035;-80
2022/02/25 07:49:52;;;;;;;12.88;2.28;;;;;;;3.72;68.42;100699.50;1090617;39;20637;-81
2022/02/25 07:51:04;;;;;;;9.20;2.35;;;;;;;3.64;68.21;100696.44;1088468;54;20030;-80
2022/02/25 07:52:29;;;;;;;10.70;2.40;;;;;;;3.55;68.44;100698.66;1088406;54;20037;-81
2022/02/25 07:53:34;;;;;;;8.85;2.38;;;;;;;3.68;68.16;100700.63;1088332;54;20078;-80
2022/02/25 07:58:33;;;;;;;10.20;2.95;;;;;;;4.07;67.03;100701.97;1088981;39;20602;-80
2022/02/25 07:59:37;;;;;;;8.48;2.47;;;;;;;3.95;66.83;100702.66;1088592;54;20038;-79
2022/02/25 08:00:41;;;;;;;10.55;2.53;;;;;;;4.01;66.76;100704.97;1088492;54;20588;-80
2022/02/25 08:01:44;;;;;;;11.27;3.25;;;;;;;3.96;67.02;100702.56;1094023;39;20678;-78
2022/02/25 08:02:48;;;;;;;9.95;2.50;;;;;;;3.85;66.68;100708.47;1088507;54;20018;-79
2022/02/25 08:03:53;;;;;;;14.98;3.47;;;;;;;3.80;66.84;100707.88;1088590;54;20018;-81
2022/02/25 08:04:54;;;;;;;10.18;3.35;;;;;;;3.89;66.53;100704.69;1088511;54;20042;-78
2022/02/25 08:05:59;;;;;;;9.35;2.70;;;;;;;3.96;66.59;100704.38;1088602;54;20026;-79
2022/02/25 08:07:01;;;;;;;9.15;2.58;;;;;;;3.99;66.45;100699.75;1088480;54;20053;-80
2022/02/25 08:08:07;;;;;;;12.40;2.42;;;;;;;4.13;66.30;100701.63;1088256;54;20026;-78
2022/02/25 08:09:23;;;;;;;9.52;2.45;;;;;;;4.22;66.03;100709.03;1088464;54;20691;-81
2022/02/25 08:10:28;;;;;;;9.68;3.53;;;;;;;4.14;66.00;100702.47;1088602;54;20067;-79
2022/02/25 08:11:32;;;;;;;11.82;2.60;;;;;;;4.10;66.31;100707.09;1088442;54;20061;-78
2022/02/25 08:12:38;;;;;;;13.88;2.53;;;;;;;4.13;66.01;100706.94;1088545;54;20023;-78
2022/02/25 08:13:42;;;;;;;9.80;2.47;;;;;;;4.10;66.05;100711.53;1088605;54;20592;-80
2022/02/25 08:14:44;;;;;;;12.98;2.75;;;;;;;4.09;66.08;100705.38;1088545;54;20014;-80
2022/02/25 08:15:48;;;;;;;8.90;2.42;;;;;;;4.20;65.71;100705.63;1092498;39;20523;-79
2022/02/25 08:16:50;;;;;;;10.70;2.40;;;;;;;4.17;65.62;100711.09;1089561;46;20038;-80
2022/02/25 08:17:54;;;;;;;15.40;3.60;;;;;;;4.17;65.92;100704.94;1088532;54;20054;-80
2022/02/25 08:18:56;;;;;;;10.68;2.33;;;;;;;4.29;65.89;100706.91;1091955;46;20011;-79
2022/02/25 08:20:00;;;;;;;10.38;2.60;;;;;;;4.39;65.64;100712.50;1088526;54;20090;-80
2022/02/25 08:21:04;;;;;;;10.63;2.45;;;;;;;4.30;65.65;100710.41;1088473;54;20094;-79
2022/02/25 08:22:06;;;;;;;6.38;2.30;;;;;;;4.33;65.45;100708.41;1088416;54;20039;-80
2022/02/25 08:23:15;;;;;;;9.77;3.17;;;;;;;4.55;65.24;100704.53;1095188;39;20524;-81
2022/02/25 08:24:17;;;;;;;13.60;3.80;;;;;;;4.44;64.90;100699.84;1088463;54;20042;-80
2022/02/25 08:25:22;;;;;;;11.43;3.00;;;;;;;4.41;64.78;100699.16;1088455;54;20086;-81
2022/02/25 08:26:26;;;;;;;9.70;2.50;;;;;;;4.59;64.79;100697.25;1088347;54;20014;-78
2022/02/25 08:27:28;;;;;;;7.80;2.30;;;;;;;4.51;64.72;100697.69;1088829;39;20477;-78
2022/02/25 08:28:36;;;;;;;12.50;3.05;;;;;;;4.52;64.59;100692.34;1088366;54;20058;-79
2022/02/25 08:29:38;;;;;;;11.50;3.03;;;;;;;4.61;64.43;100696.22;1088478;54;20031;-79
2022/02/25 08:30:50;;;;;;;7.18;2.20;;;;;;;4.74;63.75;100691.03;1088534;54;20019;-79
2022/02/25 08:31:51;;;;;;;13.90;2.90;;;;;;;4.76;63.87;100699.75;1088466;54;20025;-80
2022/02/25 08:33:03;;;;;;;10.48;2.83;;;;;;;4.81;63.68;100697.72;1088617;54;20034;-79
2022/02/25 08:34:05;;;;;;;11.77;2.55;;;;;;;4.81;63.63;100700.34;1088652;54;20032;-80
2022/02/25 08:35:17;;;;;;;11.35;3.03;;;;;;;4.82;63.57;100699.38;1088443;54;20031;-80
2022/02/25 08:36:27;;;;;;;10.95;2.83;;;;;;;4.75;63.25;100698.06;1088526;54;20011;-79
2022/02/25 08:37:30;;;;;;;12.35;2.40;;;;;;;4.87;63.30;100700.91;1088543;54;20074;-79
2022/02/25 08:38:34;;;;;;;10.00;2.30;;;;;;;4.89;63.11;100710.47;1088547;54;20082;-80
2022/02/25 08:39:36;;;;;;;13.57;2.63;;;;;;;4.88;62.92;100713.22;1088497;54;20023;-80
2022/02/25 08:40:42;;;;;;;13.07;3.15;;;;;;;4.82;62.62;100704.69;1088505;54;20080;-82
2022/02/25 08:41:44;;;;;;;11.43;2.53;;;;;;;4.74;62.28;100709.59;1088624;54;20690;-80
2022/02/25 08:42:50;;;;;;;9.60;2.08;;;;;;;4.73;62.19;100699.94;1088335;54;20035;-81
2022/02/25 08:43:57;;;;;;;9.68;2.13;;;;;;;4.69;62.53;100707.22;1088384;54;20960;-78
2022/02/25 08:44:59;;;;;;;12.88;2.42;;;;;;;4.81;62.44;100708.31;1088479;54;20014;-79
2022/02/25 08:46:03;;;;;;;11.35;2.55;;;;;;;4.86;62.56;100709.81;1088546;54;20015;-78
2022/02/25 08:47:05;;;;;;;10.70;2.70;;;;;;;4.81;62.46;100705.66;1088547;54;20015;-81
2022/02/25 08:52:51;;;;;;;7.47;2.38;;;;;;;5.14;61.97;100709.84;1087873;54;20826;-81
2022/02/25 08:53:53;;;;;;;9.43;2.38;;;;;;;5.11;61.67;100704.72;1088391;54;20097;-79
2022/02/25 08:54:57;;;;;;;13.18;3.03;;;;;;;5.13;61.50;100702.84;1088490;54;20094;-81
2022/02/25 08:56:06;;;;;;;12.73;2.40;;;;;;;5.29;61.24;100709.88;1088447;54;20042;-80
2022/02/25 08:57:08;;;;;;;13.23;3.40;;;;;;;5.22;61.53;100700.56;1088483;54;20075;-79
2022/02/25 08:58:12;;;;;;;11.15;2.53;;;;;;;5.23;61.29;100708.44;1088481;54;20659;-81
2022/02/25 08:59:16;;;;;;;12.77;2.50;;;;;;;5.12;61.25;100703.78;1090824;39;20511;-81
2022/02/25 09:00:24;;;;;;;12.60;2.83;;;;;;;5.21;61.05;100698.84;1088258;54;20014;-80
2022/02/25 09:01:30;;;;;;;9.05;2.38;;;;;;;5.37;60.80;100698.78;1088355;54;20030;-81
2022/02/25 09:02:31;;;;;;;10.93;2.78;;;;;;;5.47;60.75;100700.78;1088369;54;20034;-79
2022/02/25 09:03:36;;;;;;;12.02;3.30;;;;;;;5.50;60.65;100701.50;1088475;54;20042;-80
2022/02/25 09:04:38;;;;;;;11.38;2.38;;;;;;;5.51;60.32;100700.56;1088516;54;20034;-80
2022/02/25 09:05:43;;;;;;;15.35;2.65;;;;;;;5.41;60.40;100698.47;1088442;54;20015;-81
2022/02/25 09:06:47;;;;;;;11.50;2.30;;;;;;;5.38;60.43;100696.03;1088470;54;20302;-79
2022/02/25 09:07:50;;;;;;;7.93;2.30;;;;;;;5.38;60.01;100695.19;1088489;54;20046;-80
2022/02/25 09:08:54;;;;;;;10.95;2.75;;;;;;;5.38;59.68;100690.75;1088417;54;20014;-80
2022/02/25 09:09:57;;;;;;;11.35;2.55;;;;;;;5.49;59.76;100686.53;1089873;46;20592;-81
2022/02/25 09:11:02;;;;;;;11.20;2.63;;;;;;;5.47;59.69;100690.16;1088623;46;20106;-81
2022/02/25 09:12:04;;;;;;;11.52;2.17;;;;;;;5.63;59.51;100689.19;1088351;54;20034;-80
2022/02/25 09:13:08;;;;;;;13.85;3.17;;;;;;;5.72;59.10;100685.06;1088445;54;20718;-80
2022/02/25 09:14:12;;;;;;;13.32;2.47;;;;;;;5.95;58.72;100691.59;1088430;54;20034;-80
2022/02/25 09:15:22;;;;;;;9.20;3.05;;;;;;;5.91;58.20;100687.41;1091526;46;20053;-82
2022/02/25 09:16:26;;;;;;;13.25;2.80;;;;;;;5.84;58.71;100686.97;1088312;54;20049;-78
2022/02/25 09:17:30;;;;;;;9.82;3.03;;;;;;;6.03;58.61;100691.97;1088212;54;20022;-79
2022/02/25 09:18:40;;;;;;;10.80;2.55;;;;;;;6.12;57.82;100689.66;1094191;46;20046;-82
2022/02/25 09:19:42;;;;;;;10.55;2.45;;;;;;;6.02;57.64;100689.41;1088542;54;20699;-80
2022/02/25 09:20:46;;;;;;;10.15;2.47;;;;;;;5.89;58.13;100692.84;1088496;54;20034;-80
2022/02/25 09:21:50;;;;;;;10.88;2.40;;;;;;;6.14;57.92;100687.78;1099067;39;20512;-79
2022/02/25 09:22:55;;;;;;;11.77;2.65;;;;;;;6.24;57.57;100688.84;1088395;54;20041;-79
2022/02/25 09:23:57;;;;;;;12.95;2.53;;;;;;;6.40;57.04;100684.25;1088439;54;20031;-81
2022/02/25 09:25:01;;;;;;;17.95;3.03;;;;;;;6.38;56.64;100691.47;1088488;54;20762;-82
2022/02/25 09:26:02;;;;;;;11.63;2.17;;;;;;;6.46;56.72;100687.44;1088376;54;20026;-79
2022/02/25 09:27:08;;;;;;;10.07;2.65;;;;;;;6.43;56.29;100698.25;1088468;54;20034;-81
2022/02/25 09:28:12;;;;;;;11.75;2.80;;;;;;;6.62;56.18;100693.41;1088166;54;20027;-81
2022/02/25 09:29:17;;;;;;;9.10;2.63;;;;;;;7.05;55.72;100691.44;1088272;54;20044;-81
2022/02/25 09:30:22;;;;;;;6.22;2.15;;;;;;;7.22;55.32;100690.28;1088268;54;20081;-80
2022/02/25 09:31:26;;;;;;;11.65;2.20;;;;;;;7.30;55.23;100696.75;1088132;54;20042;-80
2022/02/25 09:32:28;;;;;;;10.27;2.30;;;;;;;6.84;55.24;100694.63;1088480;54;20026;-80
2022/02/25 09:33:33;;;;;;;11.35;2.95;;;;;;;6.87;55.26;100703.22;1088072;54;20045;-81
2022/02/25 09:34:38;;;;;;;13.82;2.95;;;;;;;6.98;55.13;100688.34;1088057;54;20042;-81
2022/02/25 09:35:42;;;;;;;12.05;3.47;;;;;;;6.74;55.34;100691.75;1088321;39;20615;-80
2022/02/25 09:36:46;;;;;;;14.43;3.63;;;;;;;6.74;55.58;100696.19;1088435;46;20046;-79
2022/02/25 09:37:50;;;;;;;12.77;2.85;;;;;;;6.62;55.91;100685.44;1088475;46;20034;-79
2022/02/25 09:38:52;;;;;;;10.18;2.90;;;;;;;6.72;55.99;100686.53;1087985;54;20030;-81
2022/02/25 09:39:56;;;;;;;8.63;1.98;;;;;;;6.69;55.96;100694.72;1087887;54;20030;-80
2022/02/25 09:40:58;;;;;;;12.43;2.63;;;;;;;6.91;55.82;100687.91;1087475;54;20031;-80
2022/02/25 09:42:02;;;;;;;14.57;2.13;;;;;;;6.92;55.45;100683.47;1088151;54;20038;-80
2022/02/25 09:43:04;;;;;;;10.98;1.80;;;;;;;6.75;55.49;100690.81;1089675;39;20527;-80
2022/02/25 09:44:09;;;;;;;9.90;2.22;;;;;;;6.82;55.36;100689.41;1094418;46;20058;-79
2022/02/25 09:45:14;;;;;;;12.10;2.17;;;;;;;6.81;55.20;100689.50;1088493;46;20596;-80
2022/02/25 09:46:21;;;;;;;10.93;2.45;;;;;;;6.74;54.09;100690.88;1091167;46;20030;-80
2022/02/25 09:47:24;;;;;;;12.77;2.45;;;;;;;6.74;53.77;100691.75;1091096;39;20205;-79
2022/02/25 09:48:29;;;;;;;14.52;3.00;;;;;;;6.74;53.88;100690.88;1088281;54;20038;-78
2022/02/25 09:49:31;;;;;;;11.27;2.38;;;;;;;6.88;53.44;100690.81;1088720;46;20018;-80
2022/02/25 09:50:35;;;;;;;17.05;2.80;;;;;;;6.97;53.36;100692.84;1088147;54;20078;-80
2022/02/25 09:51:37;;;;;;;9.65;1.98;;;;;;;7.18;53.16;100686.97;1088259;54;20769;-80
2022/02/25 09:52:43;;;;;;;9.98;1.95;;;;;;;7.46;52.50;100685.03;1088510;46;20066;-80
2022/02/25 09:53:47;;;;;;;10.63;3.05;;;;;;;7.76;51.99;100689.09;1087607;54;20061;-80
2022/02/25 09:54:48;;;;;;;6.70;2.00;;;;;;;7.85;52.11;100683.13;1088266;54;20034;-79
2022/02/25 09:55:53;;;;;;;7.72;2.05;;;;;;;7.77;51.45;100690.81;1088107;54;20086;-80
2022/02/25 09:56:54;;;;;;;10.15;2.65;;;;;;;7.72;51.38;100688.47;1087776;54;20035;-80
2022/02/25 09:58:03;;;;;;;10.10;2.20;;;;;;;7.44;51.03;100690.44;1087703;54;20031;-80
2022/02/25 09:59:07;;;;;;;10.38;2.25;;;;;;;7.71;50.93;100688.59;1088091;54;20046;-80
2022/02/25 10:00:09;;;;;;;9.52;2.05;;;;;;;7.46;51.14;100693.03;1088068;54;20572;-81
2022/02/25 10:01:13;;;;;;;9.38;2.28;;;;;;;7.79;50.94;100683.56;1087958;54;20034;-78
2022/02/25 10:02:18;;;;;;;9.93;2.38;;;;;;;7.67;51.03;100689.78;1088125;54;20057;-79
2022/02/25 10:03:25;;;;;;;12.23;3.58;;;;;;;7.65;51.91;100688.06;1088301;54;20018;-79
2022/02/25 10:04:26;;;;;;;10.40;2.10;;;;;;;7.45;51.80;100686.00;1088114;54;20054;-80
2022/02/25 10:05:34;;;;;;;9.40;1.80;;;;;;;7.83;51.47;100689.53;1091503;31;20580;-81
2022/02/25 10:06:35;;;;;;;12.35;2.83;;;;;;;7.95;51.32;100684.16;1088062;54;20019;-80
2022/02/25 10:07:41;;;;;;;12.23;2.50;;;;;;;8.13;50.93;100686.41;1088089;54;20707;-79
2022/02/25 10:08:45;;;;;;;10.32;2.42;;;;;;;7.94;50.34;100686.94;1088117;54;20042;-81
2022/02/25 10:09:51;;;;;;;8.27;2.10;;;;;;;8.00;50.06;100685.63;1087981;54;20034;-80
2022/02/25 10:10:57;;;;;;;8.57;2.60;;;;;;;7.91;50.14;100682.69;1088004;54;20090;-81
2022/02/25 10:12:00;;;;;;;8.27;2.22;;;;;;;8.00;50.46;100685.63;1088583;46;20042;-79
2022/02/25 10:13:06;;;;;;;10.65;1.98;;;;;;;7.95;50.55;100685.97;1088025;54;20011;-80
2022/02/25 10:14:10;;;;;;;8.88;1.80;;;;;;;7.75;50.61;100685.59;1087634;54;20030;-81
2022/02/25 10:15:15;;;;;;;10.10;2.17;;;;;;;7.79;51.13;100694.22;1087568;54;20037;-79